Time;durP1;ratioP1;P1;durP2;ratioP2;P2;SDS_P1;SDS_P2;PMS_P1;PMS_P2;Temp;Humidity;BMP_temperature;BMP_pressure;BME280_temperature;BME280_humidity;BME280_pressure;Samples;Min_cycle;Max_cycle;Signal;HPM_P1;HPM_P2
2021/06/05 00:01:37;;;;;;;11.28;6.90;;;;;;;10.82;73.41;98406.50;1712304;84;21456;-76
2021/06/05 00:04:05;;;;;;;10.88;6.90;;;;;;;10.77;72.77;98408.83;1712445;84;20996;-76
2021/06/05 00:06:32;;;;;;;12.60;6.70;;;;;;;10.71;73.78;98407.19;1709729;84;21098;-78
2021/06/05 00:08:59;;;;;;;10.00;6.70;;;;;;;10.69;72.96;98405.04;1691420;85;21029;-76
2021/06/05 00:11:30;;;;;;;10.53;6.17;;;;;;;10.68;72.90;98404.62;1691501;85;21087;-76
2021/06/05 00:14:00;;;;;;;9.38;6.60;;;;;;;10.64;73.31;98398.98;1690686;84;21069;-76
2021/06/05 00:16:38;;;;;;;10.75;6.22;;;;;;;10.58;73.50;98405.28;1690650;85;21119;-76
2021/06/05 00:19:05;;;;;;;8.35;6.25;;;;;;;10.56;73.78;98399.16;1690636;84;21086;-77
2021/06/05 00:21:33;;;;;;;10.03;6.80;;;;;;;10.49;75.72;98400.19;1690576;85;21116;-77
2021/06/05 00:24:00;;;;;;;9.98;6.35;;;;;;;10.47;74.99;98392.73;1692102;84;21008;-79
2021/06/05 00:26:28;;;;;;;9.40;6.25;;;;;;;10.45;75.55;98394.53;1690372;84;21086;-79
2021/06/05 00:28:55;;;;;;;10.05;6.80;;;;;;;10.40;75.22;98385.34;1681046;85;21024;-78
2021/06/05 00:31:21;;;;;;;10.75;6.12;;;;;;;10.36;75.74;98391.61;1680120;85;21055;-78
2021/06/05 00:33:48;;;;;;;9.48;6.40;;;;;;;10.34;76.10;98393.44;1679932;85;21072;-78
2021/06/05 00:36:16;;;;;;;10.58;6.40;;;;;;;10.30;75.82;98393.49;1651053;85;21037;-78
2021/06/05 00:38:44;;;;;;;8.18;6.28;;;;;;;10.32;75.12;98393.91;1679911;85;21481;-78
2021/06/05 00:41:16;;;;;;;9.15;6.25;;;;;;;10.26;76.33;98387.84;1683047;85;21402;-79
2021/06/05 00:43:48;;;;;;;9.90;6.37;;;;;;;10.26;75.37;98394.94;1691288;85;21040;-78
2021/06/05 00:46:19;;;;;;;8.20;6.33;;;;;;;10.26;75.83;98390.48;1690082;85;21628;-79
2021/06/05 00:48:47;;;;;;;10.50;6.47;;;;;;;10.25;75.00;98395.38;1690486;85;21116;-79
2021/06/05 00:51:17;;;;;;;8.25;6.30;;;;;;;10.23;76.00;98397.64;1691221;84;21017;-78
2021/06/05 00:53:46;;;;;;;9.13;6.65;;;;;;;10.22;76.21;98391.92;1691541;84;21076;-78
2021/06/05 00:56:17;;;;;;;14.75;6.92;;;;;;;10.23;75.51;98390.58;1691970;85;21055;-78
2021/06/05 00:58:44;;;;;;;8.73;6.70;;;;;;;10.21;76.23;98395.48;1692022;85;21060;-78
2021/06/05 01:01:22;;;;;;;8.23;6.17;;;;;;;10.20;75.92;98391.07;1692045;85;21117;-78
2021/06/05 01:03:52;;;;;;;9.15;6.08;;;;;;;10.22;75.45;98386.63;1691857;85;21557;-78
2021/06/05 01:06:28;;;;;;;8.63;5.95;;;;;;;10.23;75.06;98385.28;1664379;85;21136;-78
2021/06/05 01:09:09;;;;;;;8.20;6.00;;;;;;;10.27;75.00;98384.31;1692021;85;21024;-78
2021/06/05 01:11:55;;;;;;;8.73;5.58;;;;;;;10.32;75.61;98384.63;1692283;85;21012;-78
2021/06/05 01:14:30;;;;;;;7.50;5.65;;;;;;;10.36;75.36;98381.02;1691941;84;21501;-78
2021/06/05 01:17:06;;;;;;;10.63;5.53;;;;;;;10.36;75.36;98381.02;1691315;85;20962;-78
2021/06/05 01:19:40;;;;;;;8.45;5.35;;;;;;;10.38;75.34;98381.40;1691438;85;21029;-78
2021/06/05 01:22:23;;;;;;;;;;;;;;;10.41;75.06;98381.34;1693814;85;21005;-78
2021/06/05 01:25:43;;;;;;;7.53;5.22;;;;;;;10.40;74.76;98378.72;1690317;85;20135;-78
2021/06/05 01:28:24;;;;;;;8.50;5.50;;;;;;;10.38;75.07;98372.59;1690709;85;21036;-78
2021/06/05 01:30:55;;;;;;;7.60;5.95;;;;;;;10.39;74.71;98365.91;1690523;84;21033;-78
2021/06/05 01:33:27;;;;;;;9.18;5.75;;;;;;;10.41;74.41;98371.18;1690645;85;21072;-78
2021/06/05 01:35:55;;;;;;;9.08;5.83;;;;;;;10.39;74.04;98363.73;1690738;84;21032;-78
2021/06/05 01:38:25;;;;;;;8.40;6.05;;;;;;;10.40;74.12;98374.30;1690602;84;21418;-78
2021/06/05 01:40:54;;;;;;;7.22;5.78;;;;;;;10.38;73.87;98376.09;1690924;85;21032;-78
2021/06/05 01:43:26;;;;;;;8.68;6.80;;;;;;;10.34;73.42;98369.59;1691223;84;21092;-78
2021/06/05 01:45:55;;;;;;;9.35;6.00;;;;;;;10.34;73.54;98373.09;1691893;85;21473;-78
2021/06/05 01:48:23;;;;;;;8.20;6.30;;;;;;;10.32;73.40;98377.57;1692008;85;21050;-78
2021/06/05 01:50:52;;;;;;;9.23;6.40;;;;;;;10.23;74.64;98373.80;1692057;84;21100;-77
2021/06/05 01:53:27;;;;;;;10.40;5.97;;;;;;;10.18;74.54;98376.56;1664219;85;21006;-77
2021/06/05 01:56:00;;;;;;;10.80;6.72;;;;;;;10.09;74.66;98378.94;1690668;85;21077;-77
2021/06/05 01:58:30;;;;;;;7.90;5.92;;;;;;;10.06;74.04;98376.81;1665481;85;21477;-79
2021/06/05 02:01:00;;;;;;;10.28;6.12;;;;;;;10.03;74.21;98373.78;1689099;85;21045;-79
2021/06/05 02:03:28;;;;;;;11.22;6.95;;;;;;;9.98;75.34;98367.71;1690321;85;21067;-79
2021/06/05 02:05:56;;;;;;;9.10;6.75;;;;;;;9.89;74.91;98367.46;1687999;84;21502;-79
2021/06/05 02:08:27;;;;;;;8.60;6.40;;;;;;;9.86;74.60;98362.22;1691138;84;21028;-79
2021/06/05 02:11:02;;;;;;;8.58;6.22;;;;;;;9.81;76.28;98362.77;1690548;85;21033;-79
2021/06/05 02:13:50;;;;;;;8.68;6.17;;;;;;;9.79;76.36;98360.14;1690495;85;20993;-79
2021/06/05 02:16:38;;;;;;;8.53;6.17;;;;;;;9.72;76.53;98359.39;1690667;84;21033;-79
2021/06/05 02:19:13;;;;;;;10.15;6.45;;;;;;;9.70;76.80;98360.33;1690024;85;21021;-79
2021/06/05 02:21:44;;;;;;;8.23;5.92;;;;;;;9.65;76.22;98359.11;1681090;85;21111;-79
2021/06/05 02:24:25;;;;;;;9.48;6.70;;;;;;;9.63;75.91;98360.89;1690510;85;21139;-80
2021/06/05 02:26:52;;;;;;;10.75;6.15;;;;;;;9.62;76.76;98360.48;1690417;84;21061;-80
2021/06/05 02:29:28;;;;;;;9.85;6.30;;;;;;;9.63;75.03;98361.78;1689923;85;21048;-80
2021/06/05 02:31:58;;;;;;;13.18;6.15;;;;;;;9.60;76.04;98357.86;1669018;84;21048;-80
2021/06/05 02:34:28;;;;;;;9.20;5.78;;;;;;;9.59;75.85;98360.56;1691341;85;21406;-80
2021/06/05 02:37:00;;;;;;;8.28;6.58;;;;;;;9.55;76.08;98354.44;1690782;84;21048;-79
2021/06/05 02:39:29;;;;;;;7.72;6.25;;;;;;;9.51;76.60;98361.57;1690621;85;21024;-79
2021/06/05 02:41:59;;;;;;;10.20;6.10;;;;;;;9.49;77.00;98358.53;1690248;85;21034;-79
2021/06/05 02:44:30;;;;;;;9.38;6.15;;;;;;;9.50;75.87;98351.89;1690733;84;21406;-79
2021/06/05 02:46:58;;;;;;;8.93;6.22;;;;;;;9.51;75.30;98362.04;1690598;84;21502;-79
2021/06/05 02:49:34;;;;;;;8.13;5.97;;;;;;;9.49;75.27;98350.16;1664253;86;21067;-79
2021/06/05 02:52:28;;;;;;;8.73;6.58;;;;;;;9.51;75.11;98350.13;1664433;86;21025;-79
2021/06/05 02:54:43;;;;;;;10.70;6.78;;;;;;;9.50;75.47;98352.33;1675560;84;21063;-79
2021/06/05 02:57:10;;;;;;;9.53;6.72;;;;;;;9.47;75.77;98346.65;1696752;84;21474;-79
2021/06/05 02:59:38;;;;;;;8.83;6.30;;;;;;;9.49;75.22;98343.98;1696299;84;21471;-79
2021/06/05 03:02:05;;;;;;;7.50;6.20;;;;;;;9.48;75.12;98348.86;1697609;84;22124;-79
2021/06/05 03:04:32;;;;;;;12.20;6.67;;;;;;;9.47;75.77;98344.00;1696531;84;21033;-79
2021/06/05 03:06:58;;;;;;;9.13;6.33;;;;;;;9.46;76.41;98339.63;1696122;84;21019;-79
2021/06/05 03:09:25;;;;;;;10.03;6.25;;;;;;;9.44;75.75;98337.47;1696032;84;21545;-79
2021/06/05 03:11:53;;;;;;;9.83;6.53;;;;;;;9.43;76.09;98343.64;1670352;85;20977;-79
2021/06/05 03:14:20;;;;;;;11.10;6.28;;;;;;;9.43;76.10;98336.17;1696242;85;21020;-79
2021/06/05 03:16:47;;;;;;;10.10;6.53;;;;;;;9.44;76.01;98332.62;1696168;85;20984;-79
2021/06/05 03:19:14;;;;;;;11.48;6.92;;;;;;;9.45;76.30;98339.20;1696046;84;21036;-79
2021/06/05 03:21:42;;;;;;;9.63;7.05;;;;;;;9.44;76.15;98336.15;1696637;84;21005;-79
2021/06/05 03:24:31;;;;;;;7.35;5.83;;;;;;;9.43;76.67;98334.84;1649288;87;21111;-78
2021/06/05 03:27:00;;;;;;;14.15;6.40;;;;;;;9.45;76.11;98334.36;1592870;89;21111;-79
2021/06/05 03:29:29;;;;;;;7.22;5.67;;;;;;;9.49;76.58;98331.64;1641884;87;21056;-79
2021/06/05 03:31:58;;;;;;;9.90;5.45;;;;;;;9.54;75.97;98330.20;1641917;87;21108;-79
2021/06/05 03:34:26;;;;;;;8.03;5.25;;;;;;;9.57;76.55;98330.16;1617548;87;21047;-79
2021/06/05 03:36:53;;;;;;;14.90;5.65;;;;;;;9.63;76.45;98337.97;1644635;85;21059;-78
2021/06/05 03:39:21;;;;;;;8.55;5.33;;;;;;;9.71;76.39;98330.34;1643936;85;21040;-79
2021/06/05 03:41:48;;;;;;;8.90;5.25;;;;;;;9.79;76.12;98340.29;1643802;84;21159;-77
2021/06/05 03:44:16;;;;;;;10.68;5.40;;;;;;;9.85;75.85;98333.53;1643522;84;21067;-78
2021/06/05 03:46:42;;;;;;;7.45;4.90;;;;;;;9.95;76.02;98342.61;1629204;87;21055;-78
2021/06/05 03:49:09;;;;;;;8.13;5.62;;;;;;;10.03;75.79;98340.23;1634677;84;21107;-78
2021/06/05 03:51:37;;;;;;;9.00;5.50;;;;;;;10.07;75.27;98333.09;1627223;86;21155;-78
2021/06/05 03:54:06;;;;;;;7.40;5.53;;;;;;;10.14;74.95;98337.80;1617804;86;21419;-79
2021/06/05 03:56:34;;;;;;;8.75;5.65;;;;;;;10.17;74.59;98349.19;1617631;88;21055;-79
2021/06/05 03:59:02;;;;;;;9.80;5.72;;;;;;;10.22;74.43;98349.08;1616129;89;21155;-79
2021/06/05 04:01:30;;;;;;;11.15;6.35;;;;;;;10.23;73.78;98344.22;1616260;88;21464;-80
2021/06/05 04:03:58;;;;;;;11.80;7.00;;;;;;;10.25;73.67;98350.78;1616249;89;21471;-80
2021/06/05 04:06:26;;;;;;;10.05;6.05;;;;;;;10.20;73.99;98346.05;1616104;89;21116;-80
2021/06/05 04:08:55;;;;;;;10.43;6.50;;;;;;;10.20;73.68;98346.05;1616279;88;21104;-80
2021/06/05 04:11:23;;;;;;;12.43;6.25;;;;;;;10.22;73.58;98339.80;1613863;87;21119;-79
2021/06/05 04:13:50;;;;;;;8.20;6.20;;;;;;;10.25;73.47;98338.86;1613183;88;21020;-79
2021/06/05 04:16:17;;;;;;;11.22;6.87;;;;;;;10.29;73.39;98336.56;1612973;88;21012;-79
2021/06/05 04:18:45;;;;;;;9.53;6.20;;;;;;;10.31;73.76;98329.47;1612722;88;21119;-79
2021/06/05 04:21:16;;;;;;;11.85;6.20;;;;;;;10.36;73.69;98326.70;1613075;89;21091;-79
2021/06/05 04:23:43;;;;;;;11.08;6.67;;;;;;;10.39;73.35;98325.31;1619619;88;21059;-79
2021/06/05 04:26:10;;;;;;;10.28;6.15;;;;;;;10.42;73.29;98322.13;1616759;89;21486;-79
2021/06/05 04:28:39;;;;;;;16.70;9.05;;;;;;;10.48;73.29;98321.16;1667996;86;21519;-79
2021/06/05 04:31:09;;;;;;;49.58;28.30;;;;;;;10.55;73.24;98315.27;1667886;86;21034;-79
2021/06/05 04:33:36;;;;;;;9.78;7.03;;;;;;;10.61;72.96;98319.08;1667868;86;21444;-79
2021/06/05 04:36:08;;;;;;;8.18;5.67;;;;;;;10.65;73.17;98319.87;1657477;85;21035;-80
2021/06/05 04:38:37;;;;;;;10.55;5.85;;;;;;;10.72;73.20;98315.29;1667867;86;21447;-79
2021/06/05 04:41:08;;;;;;;9.10;5.62;;;;;;;10.78;72.69;98313.36;1645784;87;21058;-79
2021/06/05 04:43:35;;;;;;;11.53;5.80;;;;;;;10.85;72.65;98315.41;1646119;87;20992;-78
2021/06/05 04:46:02;;;;;;;8.68;6.12;;;;;;;10.95;72.52;98310.27;1646004;87;21505;-79
2021/06/05 04:48:29;;;;;;;11.48;6.05;;;;;;;11.04;72.84;98309.63;1646005;87;21479;-79
2021/06/05 04:50:55;;;;;;;9.18;5.78;;;;;;;11.12;72.67;98310.75;1645880;87;21075;-78
2021/06/05 04:53:23;;;;;;;10.03;6.15;;;;;;;11.19;72.46;98308.33;1646144;87;20991;-79
2021/06/05 04:55:52;;;;;;;9.98;6.10;;;;;;;11.25;72.34;98303.33;1646046;87;21039;-79
2021/06/05 04:58:20;;;;;;;11.18;6.00;;;;;;;11.30;72.42;98313.35;1646059;86;21401;-79
2021/06/05 05:00:50;;;;;;;15.98;7.70;;;;;;;11.35;72.22;98310.11;1656366;85;21081;-79
2021/06/05 05:03:21;;;;;;;8.38;6.03;;;;;;;11.40;71.84;98307.31;1657461;86;21019;-79
2021/06/05 05:05:51;;;;;;;7.62;6.53;;;;;;;11.45;71.83;98304.96;1646034;87;21036;-79
2021/06/05 05:08:20;;;;;;;9.90;5.80;;;;;;;11.52;71.66;98304.78;1645841;87;21032;-80
2021/06/05 05:10:51;;;;;;;10.38;6.17;;;;;;;11.58;71.68;98305.48;1646057;87;21031;-80
2021/06/05 05:13:23;;;;;;;9.90;6.55;;;;;;;11.64;71.59;98303.11;1646142;87;21034;-79
2021/06/05 05:15:51;;;;;;;9.10;6.53;;;;;;;11.71;71.43;98297.17;1645651;87;21060;-80
2021/06/05 05:18:18;;;;;;;8.03;6.45;;;;;;;11.79;71.52;98300.92;1646045;87;21083;-80
2021/06/05 05:20:45;;;;;;;12.53;6.78;;;;;;;11.87;71.47;98300.22;1646056;86;21027;-80
2021/06/05 05:23:14;;;;;;;9.93;7.05;;;;;;;11.95;71.11;98296.00;1647769;87;21111;-80
2021/06/05 05:25:43;;;;;;;8.48;6.45;;;;;;;12.03;70.98;98287.83;1652602;85;21054;-80
2021/06/05 05:28:14;;;;;;;8.20;6.45;;;;;;;12.11;70.83;98295.11;1652725;87;21030;-80
2021/06/05 05:30:46;;;;;;;11.12;7.22;;;;;;;12.18;70.97;98290.48;1652486;87;21535;-79
2021/06/05 05:33:13;;;;;;;9.05;7.28;;;;;;;12.28;70.52;98290.15;1651815;87;21084;-79
2021/06/05 05:35:40;;;;;;;12.30;7.08;;;;;;;12.38;70.28;98284.55;1652585;86;21107;-79
2021/06/05 05:38:10;;;;;;;11.68;6.60;;;;;;;12.50;70.12;98291.25;1652578;87;21059;-80
2021/06/05 05:40:41;;;;;;;8.65;6.25;;;;;;;12.62;69.73;98292.64;1652610;87;21046;-79
2021/06/05 05:43:08;;;;;;;11.60;6.45;;;;;;;12.74;69.49;98280.72;1652543;87;21015;-80
2021/06/05 05:45:36;;;;;;;8.68;5.55;;;;;;;12.87;68.78;98289.15;1652557;87;21043;-80
2021/06/05 05:48:06;;;;;;;11.60;5.55;;;;;;;12.95;68.83;98279.09;1652736;87;21512;-80
2021/06/05 05:50:36;;;;;;;8.25;6.28;;;;;;;13.06;68.73;98288.92;1652528;85;20996;-80
2021/06/05 05:53:04;;;;;;;7.05;5.40;;;;;;;13.18;68.73;98290.73;1652576;87;21019;-80
2021/06/05 05:55:31;;;;;;;11.93;6.83;;;;;;;13.28;68.40;98295.25;1652580;87;21074;-79
2021/06/05 05:58:09;;;;;;;9.65;5.85;;;;;;;13.35;68.29;98291.46;1652598;87;21444;-79
2021/06/05 06:00:40;;;;;;;7.37;5.60;;;;;;;13.44;68.13;98292.91;1652731;87;21111;-80
2021/06/05 06:03:08;;;;;;;7.50;5.47;;;;;;;13.51;67.79;98293.59;1652727;87;20984;-80
2021/06/05 06:05:35;;;;;;;9.13;5.67;;;;;;;13.62;67.35;98299.38;1654069;86;20980;-79
2021/06/05 06:08:05;;;;;;;6.45;5.70;;;;;;;13.73;67.12;98296.32;1588739;90;21108;-80
2021/06/05 06:10:32;;;;;;;8.73;5.58;;;;;;;13.83;66.78;98291.53;1597357;90;21055;-82
2021/06/05 06:12:59;;;;;;;11.12;6.28;;;;;;;13.91;66.84;98290.75;1597303;90;21092;-82
2021/06/05 06:15:28;;;;;;;9.48;5.70;;;;;;;14.03;66.46;98288.08;1598447;88;21109;-81
2021/06/05 06:17:57;;;;;;;7.15;5.42;;;;;;;14.16;66.23;98291.13;1597341;90;21096;-81
2021/06/05 06:20:32;;;;;;;6.80;5.37;;;;;;;14.28;66.06;98284.92;1599730;90;21509;-81
2021/06/05 06:23:00;;;;;;;7.83;5.08;;;;;;;14.39;65.61;98278.68;1615797;89;21096;-81
2021/06/05 06:25:32;;;;;;;7.08;4.60;;;;;;;14.54;64.64;98274.98;1604355;89;21044;-81
2021/06/05 06:28:00;;;;;;;7.62;4.78;;;;;;;14.67;64.74;98262.87;1614483;89;21028;-80
2021/06/05 06:30:33;;;;;;;6.78;4.37;;;;;;;14.83;64.61;98267.14;1614442;89;21009;-81
2021/06/05 06:33:04;;;;;;;10.80;4.87;;;;;;;14.99;63.70;98256.65;1614435;89;21048;-81
2021/06/05 06:35:33;;;;;;;9.90;4.47;;;;;;;15.20;63.49;98260.64;1614544;88;21107;-81
2021/06/05 06:38:01;;;;;;;7.15;4.50;;;;;;;15.40;63.12;98257.09;1614424;89;21048;-82
2021/06/05 06:40:32;;;;;;;10.08;4.60;;;;;;;15.60;62.56;98253.97;1605013;89;21039;-82
2021/06/05 06:43:00;;;;;;;6.80;4.40;;;;;;;15.81;62.07;98250.78;1599218;89;21476;-82
2021/06/05 06:45:28;;;;;;;5.33;3.95;;;;;;;16.01;56.13;98245.45;1608835;89;21465;-81
2021/06/05 06:47:56;;;;;;;6.80;4.80;;;;;;;16.17;58.79;98250.47;1614194;88;21123;-80
2021/06/05 06:50:27;;;;;;;5.37;4.45;;;;;;;16.31;59.24;98252.92;1614419;88;21457;-81
2021/06/05 06:52:53;;;;;;;5.50;4.45;;;;;;;16.38;58.97;98246.34;1614368;89;21452;-81
2021/06/05 06:55:22;;;;;;;5.85;3.98;;;;;;;16.47;59.06;98247.23;1614283;88;20948;-76
2021/06/05 06:57:52;;;;;;;4.90;4.20;;;;;;;16.55;59.00;98247.30;1614245;88;21019;-80
2021/06/05 07:00:29;;;;;;;7.20;4.37;;;;;;;16.61;58.92;98247.02;1614260;89;21047;-81
2021/06/05 07:02:57;;;;;;;7.45;4.17;;;;;;;16.67;58.27;98241.80;1614592;88;21536;-80
2021/06/05 07:05:24;;;;;;;6.35;4.25;;;;;;;16.70;56.73;98240.33;1611169;88;21052;-81
2021/06/05 07:07:50;;;;;;;6.92;4.60;;;;;;;16.75;56.65;98236.48;1614229;88;21572;-80
2021/06/05 07:10:21;;;;;;;9.70;4.45;;;;;;;16.82;56.34;98235.66;1616772;88;21049;-79
2021/06/05 07:12:48;;;;;;;5.72;3.77;;;;;;;16.88;56.91;98241.19;1589498;89;21113;-79
2021/06/05 07:15:15;;;;;;;5.03;4.05;;;;;;;16.93;56.68;98234.27;1614229;89;21044;-79
2021/06/05 07:17:41;;;;;;;5.30;3.87;;;;;;;16.99;56.58;98226.77;1614416;88;21533;-78
2021/06/05 07:20:11;;;;;;;9.33;4.33;;;;;;;17.06;56.25;98229.17;1614371;89;21011;-78
2021/06/05 07:22:37;;;;;;;6.58;4.22;;;;;;;17.13;56.07;98218.05;1614222;88;21131;-79
2021/06/05 07:25:05;;;;;;;9.28;4.60;;;;;;;17.20;55.78;98222.62;1614364;87;21043;-79
2021/06/05 07:27:32;;;;;;;6.87;4.08;;;;;;;17.29;55.32;98217.23;1614344;88;21075;-79
2021/06/05 07:29:58;;;;;;;7.20;4.40;;;;;;;17.36;54.97;98212.41;1608298;89;21448;-80
2021/06/05 07:32:25;;;;;;;4.55;3.90;;;;;;;17.43;54.17;98204.42;1593374;89;21052;-80
2021/06/05 07:34:51;;;;;;;6.92;4.20;;;;;;;17.53;54.61;98211.50;1589771;89;21035;-80
2021/06/05 07:37:20;;;;;;;6.97;4.03;;;;;;;17.62;54.25;98204.76;1630111;88;21080;-81
2021/06/05 07:39:48;;;;;;;4.60;3.47;;;;;;;17.70;54.18;98203.86;1603714;89;21530;-81
2021/06/05 07:42:15;;;;;;;3.87;3.40;;;;;;;17.79;54.01;98199.34;1588969;90;21021;-81
2021/06/05 07:44:43;;;;;;;6.60;3.67;;;;;;;17.89;53.42;98196.98;1588840;90;21064;-81
2021/06/05 07:47:09;;;;;;;6.12;3.80;;;;;;;17.98;49.96;98192.91;1588781;90;21039;-81
2021/06/05 07:49:39;;;;;;;7.75;3.60;;;;;;;18.07;50.91;98192.42;1588844;90;21540;-78
2021/06/05 07:52:11;;;;;;;5.67;3.77;;;;;;;18.16;49.90;98187.48;1589028;90;21048;-79
2021/06/05 07:54:37;;;;;;;7.37;3.67;;;;;;;18.27;50.16;98186.37;1589826;89;21028;-78
2021/06/05 07:57:05;;;;;;;7.60;4.20;;;;;;;18.36;50.79;98175.61;1592583;89;21052;-81
2021/06/05 07:59:33;;;;;;;8.30;4.95;;;;;;;18.44;50.34;98180.02;1593064;89;21080;-80
2021/06/05 08:02:00;;;;;;;8.25;3.15;;;;;;;18.51;48.92;98171.63;1614341;89;21048;-78
2021/06/05 08:04:26;;;;;;;6.25;3.12;;;;;;;18.59;46.88;98169.34;1630115;88;21513;-78
2021/06/05 08:06:56;;;;;;;4.97;3.22;;;;;;;18.71;47.00;98176.66;1614295;89;21028;-78
2021/06/05 08:09:22;;;;;;;5.90;3.62;;;;;;;18.87;45.38;98174.39;1605330;88;21057;-78
2021/06/05 08:11:49;;;;;;;5.80;3.40;;;;;;;19.02;45.60;98173.06;1594852;89;21024;-78
2021/06/05 08:14:16;;;;;;;8.15;3.67;;;;;;;19.12;46.00;98168.41;1588958;90;21075;-78
2021/06/05 08:16:43;;;;;;;5.05;3.50;;;;;;;19.23;45.80;98165.53;1588877;90;21059;-78
2021/06/05 08:19:12;;;;;;;4.20;3.30;;;;;;;19.34;46.25;98164.37;1588797;90;21076;-77
2021/06/05 08:21:42;;;;;;;5.62;3.40;;;;;;;19.44;46.16;98159.76;1593014;89;21059;-77
2021/06/05 08:24:11;;;;;;;5.87;3.30;;;;;;;19.53;44.27;98157.33;1613323;88;21127;-77
2021/06/05 08:26:39;;;;;;;4.37;2.75;;;;;;;19.67;41.81;98145.34;1608542;89;21020;-77
2021/06/05 08:29:08;;;;;;;4.78;3.00;;;;;;;19.73;42.34;98143.59;1619225;87;21071;-77
2021/06/05 08:31:35;;;;;;;10.18;3.52;;;;;;;19.82;43.50;98142.11;1634366;88;21445;-78
2021/06/05 08:34:02;;;;;;;6.90;3.67;;;;;;;19.88;43.24;98140.36;1616939;87;21067;-77
2021/06/05 08:36:31;;;;;;;5.87;3.45;;;;;;;19.96;44.48;98141.23;1608661;89;21096;-78
2021/06/05 08:38:59;;;;;;;4.28;3.47;;;;;;;19.99;42.95;98144.60;1608488;89;21031;-77
2021/06/05 08:41:50;;;;;;;5.58;3.10;;;;;;;20.04;42.60;98151.01;1608598;89;21076;-78
2021/06/05 08:44:38;;;;;;;8.83;3.50;;;;;;;20.09;42.11;98146.19;1609059;88;21028;-78
2021/06/05 08:47:27;;;;;;;6.03;3.52;;;;;;;20.22;42.67;98142.19;1630001;88;21152;-79
2021/06/05 08:49:54;;;;;;;6.15;3.70;;;;;;;20.35;43.69;98135.99;1634558;88;21064;-79
2021/06/05 08:52:47;;;;;;;5.53;3.42;;;;;;;20.44;43.74;98141.59;1613778;88;21107;-79
2021/06/05 08:55:40;;;;;;;6.42;4.12;;;;;;;20.52;43.49;98137.03;1607498;89;21489;-78
2021/06/05 08:58:32;;;;;;;8.70;5.80;;;;;;;20.57;42.45;98134.05;1608456;89;21540;-79
2021/06/05 09:01:37;;;;;;;8.50;4.20;;;;;;;20.64;42.16;98134.48;1628678;88;21037;-78
2021/06/05 09:04:07;;;;;;;;;;;;;;;20.72;41.00;98133.48;1637015;88;21052;-80
2021/06/05 09:06:57;;;;;;;5.78;3.47;;;;;;;20.78;38.89;98133.05;1634529;88;20109;-80
2021/06/05 09:09:31;;;;;;;5.85;3.05;;;;;;;20.80;37.48;98127.56;1632782;88;21047;-81
2021/06/05 09:12:01;;;;;;;5.50;2.77;;;;;;;20.89;34.89;98130.96;1626236;88;21528;-79
2021/06/05 09:14:28;;;;;;;5.35;3.05;;;;;;;21.01;33.86;98133.78;1674468;85;20983;-78
2021/06/05 09:16:55;;;;;;;5.85;3.17;;;;;;;21.05;34.06;98128.05;1675783;85;21415;-79
2021/06/05 09:19:33;;;;;;;7.10;3.30;;;;;;;21.14;33.97;98121.17;1652078;85;21038;-81
2021/06/05 09:22:14;;;;;;;6.10;3.08;;;;;;;21.21;33.81;98125.14;1676358;84;21063;-80
2021/06/05 09:24:54;;;;;;;7.33;3.40;;;;;;;21.35;36.48;98107.96;1652492;85;21055;-80
2021/06/05 09:27:26;;;;;;;3.75;3.10;;;;;;;21.47;35.03;98109.41;1659940;86;21132;-81
2021/06/05 09:30:10;;;;;;;6.03;2.90;;;;;;;21.59;37.02;98112.54;1660586;86;21044;-78
2021/06/05 09:32:45;;;;;;;6.33;2.98;;;;;;;21.72;36.30;98105.78;1662331;86;21075;-77
2021/06/05 09:35:22;;;;;;;4.22;2.70;;;;;;;21.95;35.18;98101.00;1660353;86;21569;-76
2021/06/05 09:37:55;;;;;;;4.33;2.90;;;;;;;22.14;36.15;98093.23;1662300;86;21004;-73
2021/06/05 09:40:33;;;;;;;;;;;;;;;22.29;33.55;98101.14;1664785;86;21112;-72
2021/06/05 09:43:12;;;;;;;4.83;2.65;;;;;;;22.50;33.21;98093.23;1661989;86;20090;-72
2021/06/05 09:45:43;;;;;;;4.83;2.80;;;;;;;22.68;33.84;98090.13;1662359;86;20996;-73
2021/06/05 09:48:28;;;;;;;6.30;2.85;;;;;;;22.87;29.24;98086.83;1662147;86;21123;-75
2021/06/05 09:50:58;;;;;;;;;;;;;;;23.00;31.43;98080.45;1658065;86;21115;-73
2021/06/05 09:53:35;;;;;;;3.10;2.20;;;;;;;23.12;29.06;98083.52;1647951;86;20106;-74
2021/06/05 09:56:13;;;;;;;5.22;2.47;;;;;;;23.19;28.05;98076.65;1650300;86;21003;-75
2021/06/05 09:58:45;;;;;;;4.35;2.62;;;;;;;23.25;28.33;98073.92;1650092;86;21498;-74
2021/06/05 10:01:22;;;;;;;4.47;2.22;;;;;;;23.33;29.74;98078.26;1661949;86;21013;-74
2021/06/05 10:03:57;;;;;;;3.55;2.40;;;;;;;23.37;27.49;98072.09;1656115;86;21084;-75
2021/06/05 10:06:47;;;;;;;2.87;2.65;;;;;;;23.47;29.83;98074.41;1662533;86;20976;-75
2021/06/05 10:09:27;;;;;;;4.67;2.50;;;;;;;23.60;30.46;98069.36;1662625;85;21466;-75
2021/06/05 10:12:21;;;;;;;6.70;2.55;;;;;;;23.66;31.13;98068.01;1657208;86;21034;-75
2021/06/05 10:15:11;;;;;;;7.55;2.83;;;;;;;23.71;31.03;98076.09;1660917;86;21083;-76
2021/06/05 10:17:57;;;;;;;5.67;2.52;;;;;;;23.78;30.32;98064.27;1662317;86;21048;-74
2021/06/05 10:21:01;;;;;;;5.80;2.92;;;;;;;23.85;31.73;98056.02;1662280;86;21029;-74
2021/06/05 10:23:33;;;;;;;2.42;2.20;;;;;;;24.05;30.63;98056.67;1657090;86;20953;-75
2021/06/05 10:26:17;;;;;;;3.08;2.47;;;;;;;24.08;27.51;98055.91;1669207;85;21050;-75
2021/06/05 10:28:49;;;;;;;9.13;6.47;;;;;;;24.13;28.95;98052.34;1668954;85;21009;-75
2021/06/05 10:31:19;;;;;;;7.45;4.70;;;;;;;24.35;29.82;98053.72;1634598;87;21501;-75
2021/06/05 10:33:55;;;;;;;4.60;3.72;;;;;;;24.50;29.92;98044.77;1607970;88;21576;-75
2021/06/05 10:36:33;;;;;;;10.05;5.22;;;;;;;24.69;30.12;98041.79;1635729;88;21036;-75
2021/06/05 10:39:16;;;;;;;4.97;2.42;;;;;;;24.82;29.62;98043.80;1660968;85;21022;-74
2021/06/05 10:42:00;;;;;;;3.15;2.85;;;;;;;24.82;28.06;98032.11;1677321;85;21401;-77
2021/06/05 10:44:27;;;;;;;3.33;2.90;;;;;;;25.01;28.25;98024.58;1684207;85;21551;-76
2021/06/05 10:47:29;;;;;;;6.35;4.60;;;;;;;25.63;27.51;98016.36;1674042;84;21001;-77
2021/06/05 10:50:07;;;;;;;7.97;5.03;;;;;;;26.22;27.81;98014.99;1669945;86;21418;-77
2021/06/05 10:52:51;;;;;;;4.03;3.30;;;;;;;26.84;27.85;98016.44;1662550;86;21099;-75
2021/06/05 10:55:26;;;;;;;10.30;6.62;;;;;;;28.69;24.43;98011.34;1673821;85;20988;-76
2021/06/05 10:58:19;;;;;;;5.95;2.80;;;;;;;28.69;24.43;98011.34;1667628;85;21019;-75
2021/06/05 11:00:56;;;;;;;4.08;3.10;;;;;;;29.24;24.36;98011.97;1665301;85;21008;-72
2021/06/05 11:03:31;;;;;;;5.55;3.10;;;;;;;30.32;24.17;97999.02;1674294;85;21063;-74
2021/06/05 11:06:12;;;;;;;5.35;4.58;;;;;;;31.27;22.14;97991.95;1679359;85;21039;-73
2021/06/05 11:09:01;;;;;;;8.30;5.72;;;;;;;32.07;20.64;97992.31;1682929;85;21007;-79
2021/06/05 11:11:45;;;;;;;5.55;3.25;;;;;;;32.67;21.75;97993.83;1671917;85;21004;-79
2021/06/05 11:14:23;;;;;;;5.92;4.72;;;;;;;31.64;20.18;97990.91;1677062;85;21022;-76
2021/06/05 11:17:05;;;;;;;3.45;2.70;;;;;;;31.01;22.42;97990.33;1677702;85;21009;-76
2021/06/05 11:19:51;;;;;;;2.80;2.60;;;;;;;30.11;18.89;97991.70;1671802;85;21458;-75
2021/06/05 11:22:22;;;;;;;25.40;13.62;;;;;;;29.66;21.06;97994.34;1668502;85;20969;-72
2021/06/05 11:25:14;;;;;;;4.30;3.05;;;;;;;29.22;22.69;97990.29;1637815;86;21044;-71
2021/06/05 11:27:46;;;;;;;4.08;3.10;;;;;;;28.91;23.04;97994.09;1672472;84;21528;-73
2021/06/05 11:30:30;;;;;;;3.52;2.75;;;;;;;28.50;23.41;97987.36;1677611;85;21103;-72
2021/06/05 11:33:08;;;;;;;3.85;2.47;;;;;;;28.30;24.11;97987.57;1673508;85;21016;-74
2021/06/05 11:35:57;;;;;;;3.75;2.83;;;;;;;27.99;23.10;97987.13;1679065;85;21493;-74
2021/06/05 11:38:27;;;;;;;4.28;2.77;;;;;;;27.48;25.24;97992.56;1678001;85;21016;-76
2021/06/05 11:41:02;;;;;;;5.28;2.83;;;;;;;26.87;25.10;97999.80;1643053;87;21073;-76
2021/06/05 11:43:35;;;;;;;9.98;2.80;;;;;;;26.71;25.87;97988.23;1642859;87;21069;-74
2021/06/05 11:46:19;;;;;;;4.60;2.70;;;;;;;26.65;26.26;97988.80;1668035;85;20997;-71
2021/06/05 11:49:00;;;;;;;4.67;3.25;;;;;;;26.53;26.59;97981.33;1675774;85;20980;-72
2021/06/05 11:51:45;;;;;;;4.15;2.70;;;;;;;26.51;26.83;97981.99;1662580;85;21020;-72
2021/06/05 11:54:20;;;;;;;5.35;3.08;;;;;;;26.34;26.45;97980.89;1640095;87;21072;-72
2021/06/05 11:57:00;;;;;;;4.22;2.80;;;;;;;26.23;27.57;97976.44;1639489;87;21536;-72
2021/06/05 11:59:40;;;;;;;4.90;2.80;;;;;;;26.19;27.23;97973.17;1619424;87;21469;-73